CCA4555 ZUCK-ZSPD
Flight info
| Callsign | CCA4555 |
|---|---|
| Flight time | N/A |
| Altitude | 33100 |
| Route | OLNER2X OLNER B213 WHA R343 EKIMU |
| Aircraft | A320/M-SDE3FGHIRWY/LB1 |
Departure
| Time | 2026-05-07 17:19 |
|---|---|
| Airport | Chongqing Jiangbei International Airport (ZUCK) |
Arrival
| Time | N/A |
|---|---|
| Airport | Shanghai Pudong International Airport (ZSPD) |
| Time | Latitude | Longitude | Altitude | Speed | Heading |
|---|---|---|---|---|---|
| 2026-05-07 16:45 | 29.73825 | 106.66479 | 1371 ft | 0 kts | 287° |
| 2026-05-07 17:02 | 29.73825 | 106.66480 | 1371 ft | 1 kts | 287° |
| 2026-05-07 17:03 | 29.73821 | 106.66496 | 1372 ft | 2 kts | 287° |
| 2026-05-07 17:03 | 29.73817 | 106.66511 | 1372 ft | 0 kts | 287° |
| 2026-05-07 17:03 | 29.73814 | 106.66523 | 1372 ft | 2 kts | 272° |
| 2026-05-07 17:03 | 29.73815 | 106.66541 | 1372 ft | 2 kts | 255° |
| 2026-05-07 17:04 | 29.73821 | 106.66557 | 1372 ft | 2 kts | 236° |
| 2026-05-07 17:04 | 29.73831 | 106.66569 | 1372 ft | 2 kts | 218° |
| 2026-05-07 17:04 | 29.73843 | 106.66577 | 1372 ft | 1 kts | 200° |
| 2026-05-07 17:04 | 29.73849 | 106.66579 | 1372 ft | 1 kts | 195° |
| 2026-05-07 17:05 | 29.73851 | 106.66580 | 1372 ft | 0 kts | 196° |
| 2026-05-07 17:07 | 29.73850 | 106.66580 | 1371 ft | 0 kts | 196° |
| 2026-05-07 17:07 | 29.73839 | 106.66576 | 1372 ft | 3 kts | 196° |
| 2026-05-07 17:07 | 29.73806 | 106.66565 | 1372 ft | 6 kts | 196° |
| 2026-05-07 17:08 | 29.73754 | 106.66547 | 1371 ft | 8 kts | 197° |
| 2026-05-07 17:08 | 29.73689 | 106.66525 | 1371 ft | 10 kts | 197° |
| 2026-05-07 17:08 | 29.73616 | 106.66499 | 1371 ft | 11 kts | 197° |
| 2026-05-07 17:08 | 29.73552 | 106.66517 | 1371 ft | 10 kts | 121° |
| 2026-05-07 17:09 | 29.73518 | 106.66588 | 1371 ft | 10 kts | 117° |
| 2026-05-07 17:09 | 29.73476 | 106.66642 | 1371 ft | 9 kts | 169° |
| 2026-05-07 17:09 | 29.73410 | 106.66626 | 1371 ft | 10 kts | 198° |
| 2026-05-07 17:09 | 29.73336 | 106.66600 | 1371 ft | 11 kts | 197° |
| 2026-05-07 17:10 | 29.73254 | 106.66572 | 1371 ft | 12 kts | 197° |
| 2026-05-07 17:10 | 29.73166 | 106.66542 | 1371 ft | 13 kts | 197° |
| 2026-05-07 17:10 | 29.73073 | 106.66510 | 1371 ft | 14 kts | 199° |
| 2026-05-07 17:10 | 29.72976 | 106.66475 | 1371 ft | 14 kts | 197° |
| 2026-05-07 17:11 | 29.72875 | 106.66440 | 1371 ft | 15 kts | 197° |
| 2026-05-07 17:11 | 29.72772 | 106.66406 | 1371 ft | 15 kts | 197° |
| 2026-05-07 17:11 | 29.72665 | 106.66368 | 1371 ft | 16 kts | 197° |
| 2026-05-07 17:11 | 29.72556 | 106.66331 | 1371 ft | 16 kts | 198° |
| 2026-05-07 17:12 | 29.72447 | 106.66293 | 1371 ft | 16 kts | 197° |
| 2026-05-07 17:12 | 29.72333 | 106.66254 | 1371 ft | 17 kts | 196° |
| 2026-05-07 17:12 | 29.72219 | 106.66214 | 1371 ft | 17 kts | 198° |
| 2026-05-07 17:12 | 29.72104 | 106.66173 | 1371 ft | 17 kts | 197° |
| 2026-05-07 17:13 | 29.71988 | 106.66133 | 1371 ft | 17 kts | 197° |
| 2026-05-07 17:13 | 29.71869 | 106.66093 | 1371 ft | 17 kts | 197° |
| 2026-05-07 17:13 | 29.71750 | 106.66052 | 1371 ft | 17 kts | 197° |
| 2026-05-07 17:13 | 29.71630 | 106.66009 | 1371 ft | 18 kts | 197° |
| 2026-05-07 17:14 | 29.71538 | 106.65977 | 1371 ft | 9 kts | 194° |
| 2026-05-07 17:14 | 29.71485 | 106.66000 | 1370 ft | 9 kts | 122° |
| 2026-05-07 17:14 | 29.71477 | 106.66020 | 1371 ft | 0 kts | 109° |
| 2026-05-07 17:17 | 29.71475 | 106.66028 | 1371 ft | 3 kts | 109° |
| 2026-05-07 17:17 | 29.71462 | 106.66071 | 1371 ft | 8 kts | 107° |
| 2026-05-07 17:17 | 29.71459 | 106.66133 | 1371 ft | 7 kts | 70° |
| 2026-05-07 17:18 | 29.71495 | 106.66167 | 1371 ft | 0 kts | 19° |
| 2026-05-07 17:18 | 29.71500 | 106.66169 | 1371 ft | 2 kts | 19° |
| 2026-05-07 17:18 | 29.71537 | 106.66184 | 1371 ft | 13 kts | 20° |
| 2026-05-07 17:18 | 29.71798 | 106.66282 | 1371 ft | 74 kts | 17° |
| 2026-05-07 17:19 | 29.72517 | 106.66525 | 1372 ft | 137 kts | 16° |
| 2026-05-07 17:19 | 29.73536 | 106.66867 | 1657 ft | 161 kts | 19° |
| 2026-05-07 17:19 | 29.74605 | 106.67251 | 2292 ft | 165 kts | 20° |
| 2026-05-07 17:19 | 29.75704 | 106.67644 | 2985 ft | 167 kts | 22° |
| 2026-05-07 17:20 | 29.76819 | 106.68064 | 3513 ft | 176 kts | 26° |
| 2026-05-07 17:20 | 29.77972 | 106.68711 | 3935 ft | 191 kts | 35° |
| 2026-05-07 17:20 | 29.79087 | 106.69620 | 4359 ft | 206 kts | 41° |
| 2026-05-07 17:20 | 29.80323 | 106.70652 | 4711 ft | 231 kts | 36° |
| 2026-05-07 17:21 | 29.81737 | 106.71697 | 5210 ft | 250 kts | 35° |
| 2026-05-07 17:21 | 29.83258 | 106.72787 | 5819 ft | 264 kts | 34° |
| 2026-05-07 17:21 | 29.84823 | 106.73895 | 6632 ft | 269 kts | 34° |
| 2026-05-07 17:21 | 29.86356 | 106.75105 | 7405 ft | 274 kts | 42° |
| 2026-05-07 17:22 | 29.87706 | 106.76676 | 8144 ft | 280 kts | 53° |
| 2026-05-07 17:22 | 29.88890 | 106.78468 | 8870 ft | 287 kts | 56° |
| 2026-05-07 17:22 | 29.90076 | 106.80351 | 9600 ft | 293 kts | 56° |
| 2026-05-07 17:22 | 29.91281 | 106.82274 | 10329 ft | 300 kts | 56° |
| 2026-05-07 17:23 | 29.92529 | 106.84256 | 10807 ft | 315 kts | 56° |
| 2026-05-07 17:23 | 29.93858 | 106.86358 | 11196 ft | 333 kts | 56° |
| 2026-05-07 17:23 | 29.95254 | 106.88559 | 11550 ft | 351 kts | 55° |
| 2026-05-07 17:23 | 29.96740 | 106.90896 | 11921 ft | 368 kts | 55° |
| 2026-05-07 17:24 | 29.98267 | 106.93295 | 12528 ft | 375 kts | 55° |
| 2026-05-07 17:24 | 29.99800 | 106.95705 | 13203 ft | 380 kts | 55° |
| 2026-05-07 17:24 | 30.01375 | 106.98180 | 13852 ft | 385 kts | 54° |
| 2026-05-07 17:24 | 30.02954 | 107.00669 | 14483 ft | 390 kts | 54° |
| 2026-05-07 17:25 | 30.04566 | 107.03210 | 15124 ft | 393 kts | 54° |
| 2026-05-07 17:25 | 30.06187 | 107.05766 | 15711 ft | 398 kts | 54° |
| 2026-05-07 17:25 | 30.07835 | 107.08366 | 16279 ft | 402 kts | 53° |
| 2026-05-07 17:25 | 30.09468 | 107.10995 | 16816 ft | 407 kts | 57° |
| 2026-05-07 17:26 | 30.10562 | 107.13979 | 17283 ft | 412 kts | 79° |
| 2026-05-07 17:26 | 30.10645 | 107.17289 | 17824 ft | 412 kts | 101° |
| 2026-05-07 17:26 | 30.09902 | 107.20474 | 18303 ft | 414 kts | 110° |
| 2026-05-07 17:26 | 30.08998 | 107.23662 | 18701 ft | 421 kts | 110° |
| 2026-05-07 17:27 | 30.08084 | 107.26882 | 19025 ft | 430 kts | 110° |
| 2026-05-07 17:27 | 30.07168 | 107.30174 | 19417 ft | 435 kts | 109° |
| 2026-05-07 17:27 | 30.06253 | 107.33523 | 19858 ft | 440 kts | 109° |
| 2026-05-07 17:27 | 30.05337 | 107.36907 | 20281 ft | 445 kts | 109° |
| 2026-05-07 17:28 | 30.04418 | 107.40316 | 20683 ft | 450 kts | 108° |
| 2026-05-07 17:28 | 30.03488 | 107.43774 | 21082 ft | 455 kts | 108° |
| 2026-05-07 17:28 | 30.02556 | 107.47244 | 21503 ft | 458 kts | 108° |
| 2026-05-07 17:28 | 30.01602 | 107.50785 | 21944 ft | 462 kts | 108° |
| 2026-05-07 17:29 | 30.00660 | 107.54285 | 22347 ft | 466 kts | 108° |
| 2026-05-07 17:29 | 29.99685 | 107.57906 | 22758 ft | 470 kts | 108° |
| 2026-05-07 17:29 | 29.98720 | 107.61490 | 23169 ft | 475 kts | 108° |
| 2026-05-07 17:29 | 29.97737 | 107.65137 | 23593 ft | 479 kts | 109° |
| 2026-05-07 17:30 | 29.96742 | 107.68831 | 24010 ft | 482 kts | 109° |
| 2026-05-07 17:30 | 29.95744 | 107.72523 | 24420 ft | 486 kts | 109° |
| 2026-05-07 17:30 | 29.94731 | 107.76260 | 24824 ft | 490 kts | 110° |
| 2026-05-07 17:30 | 29.93899 | 107.80054 | 25183 ft | 496 kts | 99° |
| 2026-05-07 17:31 | 29.93772 | 107.84036 | 25563 ft | 500 kts | 85° |
| 2026-05-07 17:31 | 29.94398 | 107.87934 | 25965 ft | 501 kts | 73° |
| 2026-05-07 17:31 | 29.95383 | 107.91790 | 26341 ft | 505 kts | 71° |
| 2026-05-07 17:31 | 29.96432 | 107.95654 | 26676 ft | 509 kts | 71° |
| 2026-05-07 17:32 | 29.97480 | 107.99552 | 27156 ft | 509 kts | 71° |
| 2026-05-07 17:32 | 29.98511 | 108.03481 | 27669 ft | 509 kts | 71° |
| 2026-05-07 17:32 | 29.99510 | 108.07378 | 28136 ft | 509 kts | 72° |
| 2026-05-07 17:32 | 30.00162 | 108.09952 | 28403 ft | 510 kts | 72° |
| 2026-05-07 17:33 | 30.01489 | 108.15236 | 28907 ft | 513 kts | 72° |
| 2026-05-07 17:33 | 30.02466 | 108.19138 | 29278 ft | 515 kts | 72° |
| 2026-05-07 17:33 | 30.03463 | 108.23148 | 29733 ft | 514 kts | 72° |
| 2026-05-07 17:33 | 30.04438 | 108.27063 | 30206 ft | 512 kts | 72° |
| 2026-05-07 17:34 | 30.05425 | 108.31020 | 30654 ft | 511 kts | 71° |
| 2026-05-07 17:34 | 30.06397 | 108.34915 | 31108 ft | 509 kts | 72° |
| 2026-05-07 17:34 | 30.07381 | 108.38846 | 31530 ft | 508 kts | 71° |
| 2026-05-07 17:34 | 30.08350 | 108.42727 | 31885 ft | 508 kts | 72° |
| 2026-05-07 17:35 | 30.09323 | 108.46644 | 32193 ft | 509 kts | 72° |
| 2026-05-07 17:35 | 30.10301 | 108.50587 | 32476 ft | 511 kts | 72° |
| 2026-05-07 17:35 | 30.11266 | 108.54499 | 32765 ft | 512 kts | 71° |
| 2026-05-07 17:35 | 30.12330 | 108.58449 | 33084 ft | 512 kts | 69° |
| 2026-05-07 17:36 | 30.13460 | 108.62337 | 33271 ft | 514 kts | 68° |
| 2026-05-07 17:36 | 30.14613 | 108.66250 | 33280 ft | 515 kts | 69° |
| 2026-05-07 17:36 | 30.16902 | 108.74055 | 33290 ft | 515 kts | 69° |
| 2026-05-07 17:37 | 30.18784 | 108.80547 | 33298 ft | 514 kts | 69° |
| 2026-05-07 17:37 | 30.21428 | 108.89681 | 33296 ft | 514 kts | 69° |
| 2026-05-07 17:38 | 30.23540 | 108.97568 | 33300 ft | 515 kts | 72° |
| 2026-05-07 17:38 | 30.25485 | 109.05521 | 33298 ft | 516 kts | 72° |
| 2026-05-07 17:39 | 30.27427 | 109.13489 | 33296 ft | 516 kts | 72° |
| 2026-05-07 17:39 | 30.29379 | 109.21478 | 33292 ft | 517 kts | 72° |
| 2026-05-07 17:40 | 30.31323 | 109.29441 | 33296 ft | 517 kts | 72° |
| 2026-05-07 17:40 | 30.33259 | 109.37390 | 33296 ft | 517 kts | 72° |
| 2026-05-07 17:41 | 30.35208 | 109.45374 | 33297 ft | 517 kts | 72° |
| 2026-05-07 17:41 | 30.37147 | 109.53381 | 33298 ft | 517 kts | 72° |
| 2026-05-07 17:42 | 30.38988 | 109.61416 | 33299 ft | 517 kts | 75° |
| 2026-05-07 17:42 | 30.40277 | 109.69583 | 33300 ft | 518 kts | 79° |
| 2026-05-07 17:43 | 30.41455 | 109.77782 | 33302 ft | 519 kts | 79° |
| 2026-05-07 17:43 | 30.42641 | 109.85983 | 33306 ft | 518 kts | 79° |
| 2026-05-07 17:44 | 30.43836 | 109.94222 | 33308 ft | 518 kts | 79° |
| 2026-05-07 17:44 | 30.45029 | 110.02416 | 33308 ft | 518 kts | 79° |
| 2026-05-07 17:45 | 30.46216 | 110.10626 | 33310 ft | 518 kts | 79° |
| 2026-05-07 17:45 | 30.47401 | 110.18858 | 33311 ft | 519 kts | 79° |
| 2026-05-07 17:46 | 30.48569 | 110.27030 | 33313 ft | 518 kts | 79° |
| 2026-05-07 17:46 | 30.49742 | 110.35255 | 33317 ft | 518 kts | 78° |
| 2026-05-07 17:47 | 30.50912 | 110.43488 | 33324 ft | 519 kts | 78° |
| 2026-05-07 17:47 | 30.52072 | 110.51690 | 33331 ft | 518 kts | 79° |
| 2026-05-07 17:48 | 30.53230 | 110.59935 | 33334 ft | 518 kts | 79° |
| 2026-05-07 17:48 | 30.54378 | 110.68147 | 33331 ft | 519 kts | 79° |
| 2026-05-07 17:49 | 30.55524 | 110.76426 | 33332 ft | 519 kts | 79° |
| 2026-05-07 17:49 | 30.56662 | 110.84648 | 33326 ft | 518 kts | 79° |
| 2026-05-07 17:50 | 30.57795 | 110.92866 | 33319 ft | 518 kts | 79° |
| 2026-05-07 17:50 | 30.58929 | 111.01114 | 33317 ft | 519 kts | 79° |
| 2026-05-07 17:51 | 30.60058 | 111.09380 | 33296 ft | 520 kts | 79° |
| 2026-05-07 17:51 | 30.61180 | 111.17663 | 33282 ft | 520 kts | 79° |
| 2026-05-07 17:52 | 30.62289 | 111.25889 | 33263 ft | 520 kts | 78° |
| 2026-05-07 17:52 | 30.63413 | 111.34206 | 33249 ft | 520 kts | 78° |
| 2026-05-07 17:53 | 30.64510 | 111.42426 | 33243 ft | 519 kts | 78° |
| 2026-05-07 17:53 | 30.65414 | 111.50741 | 33237 ft | 520 kts | 84° |
| 2026-05-07 17:54 | 30.65845 | 111.59113 | 33234 ft | 521 kts | 85° |
| 2026-05-07 17:54 | 30.66240 | 111.67473 | 33228 ft | 521 kts | 85° |
| 2026-05-07 17:55 | 30.66669 | 111.75877 | 33229 ft | 521 kts | 86° |
| 2026-05-07 17:55 | 30.67095 | 111.84261 | 33222 ft | 522 kts | 85° |
| 2026-05-07 17:56 | 30.67516 | 111.92667 | 33215 ft | 521 kts | 85° |
| 2026-05-07 17:56 | 30.67983 | 112.01038 | 33219 ft | 521 kts | 84° |
| 2026-05-07 17:57 | 30.68479 | 112.08034 | 33212 ft | 521 kts | 84° |
| 2026-05-07 17:57 | 30.69166 | 112.17768 | 33214 ft | 522 kts | 84° |
| 2026-05-07 17:58 | 30.69733 | 112.26128 | 33215 ft | 521 kts | 84° |
| 2026-05-07 17:58 | 30.70293 | 112.34496 | 33207 ft | 521 kts | 84° |
| 2026-05-07 17:59 | 30.70846 | 112.42880 | 33204 ft | 521 kts | 84° |
| 2026-05-07 17:59 | 30.71394 | 112.51270 | 33206 ft | 521 kts | 84° |
| 2026-05-07 18:00 | 30.71934 | 112.59611 | 33201 ft | 521 kts | 84° |
| 2026-05-07 18:00 | 30.72474 | 112.68008 | 33197 ft | 521 kts | 84° |
| 2026-05-07 18:01 | 30.73007 | 112.76403 | 33191 ft | 521 kts | 85° |
| 2026-05-07 18:01 | 30.73526 | 112.84753 | 33192 ft | 522 kts | 85° |
| 2026-05-07 18:02 | 30.74305 | 112.97315 | 33199 ft | 521 kts | 84° |
| 2026-05-07 18:03 | 30.74819 | 113.05730 | 33205 ft | 522 kts | 85° |
| 2026-05-07 18:03 | 30.75316 | 113.14109 | 33208 ft | 522 kts | 86° |
| 2026-05-07 18:04 | 30.75578 | 113.22520 | 33210 ft | 522 kts | 87° |
| 2026-05-07 18:04 | 30.75779 | 113.30907 | 33209 ft | 521 kts | 87° |
| 2026-05-07 18:05 | 30.75983 | 113.39284 | 33210 ft | 521 kts | 87° |
| 2026-05-07 18:05 | 30.76193 | 113.47721 | 33206 ft | 522 kts | 87° |
| 2026-05-07 18:06 | 30.76393 | 113.56109 | 33206 ft | 521 kts | 86° |
| 2026-05-07 18:06 | 30.76588 | 113.64496 | 33202 ft | 522 kts | 87° |
| 2026-05-07 18:07 | 30.76781 | 113.72920 | 33203 ft | 522 kts | 87° |
| 2026-05-07 18:07 | 30.76967 | 113.81363 | 33199 ft | 521 kts | 87° |
| 2026-05-07 18:08 | 30.77146 | 113.89721 | 33206 ft | 522 kts | 87° |
| 2026-05-07 18:08 | 30.77320 | 113.98140 | 33202 ft | 521 kts | 88° |
| 2026-05-07 18:09 | 30.77556 | 114.06522 | 33206 ft | 520 kts | 85° |
| 2026-05-07 18:09 | 30.78063 | 114.14890 | 33203 ft | 517 kts | 81° |
| 2026-05-07 18:10 | 30.79357 | 114.23051 | 33204 ft | 513 kts | 72° |
| 2026-05-07 18:10 | 30.81533 | 114.30848 | 33202 ft | 509 kts | 64° |
| 2026-05-07 18:11 | 30.84080 | 114.38469 | 33201 ft | 508 kts | 64° |
| 2026-05-07 18:11 | 30.86593 | 114.46170 | 33200 ft | 507 kts | 65° |
| 2026-05-07 18:12 | 30.89061 | 114.53774 | 33203 ft | 506 kts | 64° |
| 2026-05-07 18:12 | 30.91553 | 114.61446 | 33197 ft | 506 kts | 64° |
| 2026-05-07 18:13 | 30.94022 | 114.69088 | 33204 ft | 506 kts | 65° |
| 2026-05-07 18:13 | 30.96495 | 114.76781 | 33202 ft | 505 kts | 65° |
| 2026-05-07 18:14 | 30.98954 | 114.84421 | 33202 ft | 503 kts | 65° |
| 2026-05-07 18:14 | 31.00981 | 114.90726 | 33205 ft | 503 kts | 65° |